sensor_id;sensor_type;location;lat;lon;timestamp;P1;durP1;ratioP1;P2;durP2;ratioP2
1088;SDS011;533;53.556;9.990;2022-09-30T00:01:00;8.50;;;7.60;;
1088;SDS011;533;53.556;9.990;2022-09-30T00:03:33;7.87;;;6.97;;
1088;SDS011;533;53.556;9.990;2022-09-30T00:06:07;9.03;;;7.70;;
1088;SDS011;533;53.556;9.990;2022-09-30T00:08:39;9.90;;;7.40;;
1088;SDS011;533;53.556;9.990;2022-09-30T00:11:16;9.50;;;7.60;;
1088;SDS011;533;53.556;9.990;2022-09-30T00:13:50;9.57;;;7.70;;
1088;SDS011;533;53.556;9.990;2022-09-30T00:16:23;10.63;;;7.60;;
1088;SDS011;533;53.556;9.990;2022-09-30T00:18:56;11.23;;;8.40;;
1088;SDS011;533;53.556;9.990;2022-09-30T00:21:29;10.37;;;8.00;;
1088;SDS011;533;53.556;9.990;2022-09-30T00:24:02;10.67;;;9.10;;
1088;SDS011;533;53.556;9.990;2022-09-30T00:26:35;10.10;;;8.30;;
1088;SDS011;533;53.556;9.990;2022-09-30T00:29:08;10.80;;;8.77;;
1088;SDS011;533;53.556;9.990;2022-09-30T00:31:40;10.70;;;9.07;;
1088;SDS011;533;53.556;9.990;2022-09-30T00:34:13;10.30;;;8.80;;
1088;SDS011;533;53.556;9.990;2022-09-30T00:36:46;12.00;;;9.50;;
1088;SDS011;533;53.556;9.990;2022-09-30T00:39:26;9.57;;;8.57;;
1088;SDS011;533;53.556;9.990;2022-09-30T00:42:00;11.50;;;9.97;;
1088;SDS011;533;53.556;9.990;2022-09-30T00:47:33;11.57;;;9.10;;
1088;SDS011;533;53.556;9.990;2022-09-30T00:58:44;12.70;;;9.77;;
1088;SDS011;533;53.556;9.990;2022-09-30T01:01:18;12.67;;;10.30;;
1088;SDS011;533;53.556;9.990;2022-09-30T01:04:34;12.80;;;10.60;;
1088;SDS011;533;53.556;9.990;2022-09-30T01:06:47;12.67;;;10.57;;
1088;SDS011;533;53.556;9.990;2022-09-30T01:09:20;14.23;;;10.80;;
1088;SDS011;533;53.556;9.990;2022-09-30T01:11:52;13.77;;;11.70;;
1088;SDS011;533;53.556;9.990;2022-09-30T01:14:25;16.53;;;10.83;;
1088;SDS011;533;53.556;9.990;2022-09-30T01:19:57;13.30;;;11.20;;
1088;SDS011;533;53.556;9.990;2022-09-30T01:25:26;15.47;;;12.20;;
1088;SDS011;533;53.556;9.990;2022-09-30T01:39:09;13.00;;;10.97;;
1088;SDS011;533;53.556;9.990;2022-09-30T01:44:42;16.57;;;12.53;;
1088;SDS011;533;53.556;9.990;2022-09-30T01:47:24;17.83;;;13.27;;
1088;SDS011;533;53.556;9.990;2022-09-30T01:50:02;13.40;;;11.33;;
1088;SDS011;533;53.556;9.990;2022-09-30T01:52:44;15.30;;;12.27;;
1088;SDS011;533;53.556;9.990;2022-09-30T01:55:26;14.50;;;13.00;;
1088;SDS011;533;53.556;9.990;2022-09-30T01:58:06;16.60;;;12.77;;
1088;SDS011;533;53.556;9.990;2022-09-30T02:00:49;15.90;;;11.90;;
1088;SDS011;533;53.556;9.990;2022-09-30T02:03:28;20.13;;;12.10;;
1088;SDS011;533;53.556;9.990;2022-09-30T02:06:17;17.67;;;13.13;;
1088;SDS011;533;53.556;9.990;2022-09-30T02:08:58;14.73;;;12.43;;
1088;SDS011;533;53.556;9.990;2022-09-30T02:11:34;16.80;;;12.53;;
1088;SDS011;533;53.556;9.990;2022-09-30T02:16:41;15.80;;;12.27;;
1088;SDS011;533;53.556;9.990;2022-09-30T02:21:54;16.77;;;12.60;;
1088;SDS011;533;53.556;9.990;2022-09-30T02:24:29;17.80;;;12.80;;
1088;SDS011;533;53.556;9.990;2022-09-30T02:27:08;21.13;;;14.07;;
1088;SDS011;533;53.556;9.990;2022-09-30T02:29:44;14.83;;;12.47;;
1088;SDS011;533;53.556;9.990;2022-09-30T02:32:26;16.60;;;12.20;;
1088;SDS011;533;53.556;9.990;2022-09-30T02:35:03;16.50;;;12.77;;
1088;SDS011;533;53.556;9.990;2022-09-30T02:37:43;15.17;;;12.40;;
1088;SDS011;533;53.556;9.990;2022-09-30T02:40:27;14.80;;;11.80;;
1088;SDS011;533;53.556;9.990;2022-09-30T02:43:02;14.23;;;11.27;;
1088;SDS011;533;53.556;9.990;2022-09-30T03:00:05;13.37;;;10.87;;
1088;SDS011;533;53.556;9.990;2022-09-30T03:02:45;14.93;;;11.40;;
1088;SDS011;533;53.556;9.990;2022-09-30T03:05:17;13.90;;;11.67;;
1088;SDS011;533;53.556;9.990;2022-09-30T03:07:49;18.27;;;11.40;;
1088;SDS011;533;53.556;9.990;2022-09-30T03:10:21;14.00;;;11.87;;
1088;SDS011;533;53.556;9.990;2022-09-30T03:19:03;13.20;;;11.77;;
1088;SDS011;533;53.556;9.990;2022-09-30T03:31:02;17.17;;;11.80;;
1088;SDS011;533;53.556;9.990;2022-09-30T03:33:54;14.00;;;11.70;;
1088;SDS011;533;53.556;9.990;2022-09-30T03:39:12;15.30;;;12.07;;
1088;SDS011;533;53.556;9.990;2022-09-30T03:41:59;15.43;;;11.60;;
1088;SDS011;533;53.556;9.990;2022-09-30T03:47:34;14.27;;;11.97;;
1088;SDS011;533;53.556;9.990;2022-09-30T03:50:13;20.93;;;12.47;;
1088;SDS011;533;53.556;9.990;2022-09-30T03:52:49;16.80;;;12.40;;
1088;SDS011;533;53.556;9.990;2022-09-30T03:55:22;14.07;;;11.60;;
1088;SDS011;533;53.556;9.990;2022-09-30T03:57:54;15.30;;;12.20;;
1088;SDS011;533;53.556;9.990;2022-09-30T04:00:28;14.03;;;11.97;;
1088;SDS011;533;53.556;9.990;2022-09-30T04:03:00;17.10;;;14.10;;
1088;SDS011;533;53.556;9.990;2022-09-30T04:05:32;18.87;;;13.67;;
1088;SDS011;533;53.556;9.990;2022-09-30T04:08:04;17.03;;;12.87;;
1088;SDS011;533;53.556;9.990;2022-09-30T04:10:38;16.50;;;13.43;;
1088;SDS011;533;53.556;9.990;2022-09-30T04:13:11;16.97;;;15.07;;
1088;SDS011;533;53.556;9.990;2022-09-30T04:15:43;22.50;;;15.13;;
1088;SDS011;533;53.556;9.990;2022-09-30T04:18:15;20.93;;;15.00;;
1088;SDS011;533;53.556;9.990;2022-09-30T04:20:47;23.20;;;15.97;;
1088;SDS011;533;53.556;9.990;2022-09-30T04:23:19;21.30;;;15.30;;
1088;SDS011;533;53.556;9.990;2022-09-30T04:25:54;20.43;;;15.07;;
1088;SDS011;533;53.556;9.990;2022-09-30T04:28:26;21.43;;;16.60;;
1088;SDS011;533;53.556;9.990;2022-09-30T04:30:58;25.77;;;20.50;;
1088;SDS011;533;53.556;9.990;2022-09-30T04:33:31;27.70;;;20.67;;
1088;SDS011;533;53.556;9.990;2022-09-30T04:36:04;27.50;;;21.90;;
1088;SDS011;533;53.556;9.990;2022-09-30T04:38:36;27.37;;;21.00;;
1088;SDS011;533;53.556;9.990;2022-09-30T04:41:10;24.17;;;20.73;;
1088;SDS011;533;53.556;9.990;2022-09-30T04:43:46;24.57;;;19.83;;
1088;SDS011;533;53.556;9.990;2022-09-30T04:46:19;24.57;;;20.67;;
1088;SDS011;533;53.556;9.990;2022-09-30T04:48:53;25.20;;;18.97;;
1088;SDS011;533;53.556;9.990;2022-09-30T04:51:25;32.60;;;22.60;;
1088;SDS011;533;53.556;9.990;2022-09-30T04:53:57;25.27;;;18.63;;
1088;SDS011;533;53.556;9.990;2022-09-30T04:56:29;29.60;;;18.27;;
1088;SDS011;533;53.556;9.990;2022-09-30T04:59:01;27.73;;;18.37;;
1088;SDS011;533;53.556;9.990;2022-09-30T05:01:33;22.93;;;17.10;;
1088;SDS011;533;53.556;9.990;2022-09-30T05:04:05;19.60;;;16.73;;
1088;SDS011;533;53.556;9.990;2022-09-30T05:06:38;24.20;;;16.90;;
1088;SDS011;533;53.556;9.990;2022-09-30T05:09:11;19.67;;;16.60;;
1088;SDS011;533;53.556;9.990;2022-09-30T05:11:43;21.33;;;17.63;;
1088;SDS011;533;53.556;9.990;2022-09-30T05:14:15;18.60;;;16.60;;
1088;SDS011;533;53.556;9.990;2022-09-30T05:16:47;20.70;;;17.47;;
1088;SDS011;533;53.556;9.990;2022-09-30T05:19:19;21.83;;;16.60;;
1088;SDS011;533;53.556;9.990;2022-09-30T05:21:51;18.07;;;15.63;;
1088;SDS011;533;53.556;9.990;2022-09-30T05:24:23;20.17;;;15.77;;
1088;SDS011;533;53.556;9.990;2022-09-30T05:26:55;20.07;;;17.80;;
1088;SDS011;533;53.556;9.990;2022-09-30T05:29:26;20.97;;;17.10;;
1088;SDS011;533;53.556;9.990;2022-09-30T05:31:58;20.93;;;16.17;;
1088;SDS011;533;53.556;9.990;2022-09-30T05:34:30;20.17;;;17.30;;
1088;SDS011;533;53.556;9.990;2022-09-30T05:37:02;23.30;;;16.47;;
1088;SDS011;533;53.556;9.990;2022-09-30T05:39:34;18.83;;;15.27;;
1088;SDS011;533;53.556;9.990;2022-09-30T05:42:07;24.70;;;18.03;;
1088;SDS011;533;53.556;9.990;2022-09-30T05:44:44;21.00;;;18.53;;
1088;SDS011;533;53.556;9.990;2022-09-30T05:47:16;23.60;;;19.53;;
1088;SDS011;533;53.556;9.990;2022-09-30T05:49:48;23.07;;;17.47;;
1088;SDS011;533;53.556;9.990;2022-09-30T05:52:26;23.07;;;18.20;;
1088;SDS011;533;53.556;9.990;2022-09-30T05:54:59;20.83;;;18.20;;
1088;SDS011;533;53.556;9.990;2022-09-30T05:57:32;24.27;;;17.33;;
1088;SDS011;533;53.556;9.990;2022-09-30T06:00:04;21.77;;;17.03;;
1088;SDS011;533;53.556;9.990;2022-09-30T06:18:37;20.93;;;15.37;;
1088;SDS011;533;53.556;9.990;2022-09-30T06:21:13;22.00;;;17.93;;
1088;SDS011;533;53.556;9.990;2022-09-30T06:23:46;20.43;;;16.13;;
1088;SDS011;533;53.556;9.990;2022-09-30T06:26:18;22.37;;;17.97;;
1088;SDS011;533;53.556;9.990;2022-09-30T06:28:50;20.10;;;16.63;;
1088;SDS011;533;53.556;9.990;2022-09-30T06:31:22;17.90;;;15.97;;
1088;SDS011;533;53.556;9.990;2022-09-30T06:33:54;20.20;;;15.43;;
1088;SDS011;533;53.556;9.990;2022-09-30T06:36:27;17.20;;;15.20;;
1088;SDS011;533;53.556;9.990;2022-09-30T06:39:00;22.13;;;17.90;;
1088;SDS011;533;53.556;9.990;2022-09-30T06:41:32;18.87;;;15.13;;
1088;SDS011;533;53.556;9.990;2022-09-30T06:44:11;22.93;;;17.00;;
1088;SDS011;533;53.556;9.990;2022-09-30T06:46:43;20.90;;;16.37;;
1088;SDS011;533;53.556;9.990;2022-09-30T06:49:25;23.43;;;15.57;;
1088;SDS011;533;53.556;9.990;2022-09-30T06:52:08;18.57;;;14.73;;
1088;SDS011;533;53.556;9.990;2022-09-30T06:54:43;17.90;;;14.80;;
1088;SDS011;533;53.556;9.990;2022-09-30T06:57:15;21.53;;;14.80;;
1088;SDS011;533;53.556;9.990;2022-09-30T06:59:52;20.77;;;16.17;;
1088;SDS011;533;53.556;9.990;2022-09-30T07:02:25;20.93;;;15.63;;
1088;SDS011;533;53.556;9.990;2022-09-30T07:04:57;20.80;;;14.97;;
1088;SDS011;533;53.556;9.990;2022-09-30T07:07:29;16.80;;;13.83;;
1088;SDS011;533;53.556;9.990;2022-09-30T07:10:04;19.93;;;15.47;;
1088;SDS011;533;53.556;9.990;2022-09-30T07:12:36;17.30;;;14.03;;
1088;SDS011;533;53.556;9.990;2022-09-30T07:15:08;18.57;;;15.87;;
1088;SDS011;533;53.556;9.990;2022-09-30T07:17:48;17.63;;;13.90;;
1088;SDS011;533;53.556;9.990;2022-09-30T07:20:21;17.43;;;13.63;;
1088;SDS011;533;53.556;9.990;2022-09-30T07:22:54;18.30;;;13.67;;
1088;SDS011;533;53.556;9.990;2022-09-30T07:25:26;15.37;;;13.13;;
1088;SDS011;533;53.556;9.990;2022-09-30T07:27:58;16.03;;;13.10;;
1088;SDS011;533;53.556;9.990;2022-09-30T07:30:30;16.43;;;13.23;;
1088;SDS011;533;53.556;9.990;2022-09-30T07:33:02;18.60;;;14.70;;
1088;SDS011;533;53.556;9.990;2022-09-30T07:35:34;18.03;;;13.87;;
1088;SDS011;533;53.556;9.990;2022-09-30T07:38:07;19.63;;;13.03;;
1088;SDS011;533;53.556;9.990;2022-09-30T07:40:39;18.00;;;13.77;;
1088;SDS011;533;53.556;9.990;2022-09-30T07:43:13;15.93;;;13.83;;
1088;SDS011;533;53.556;9.990;2022-09-30T07:45:49;20.30;;;15.33;;
1088;SDS011;533;53.556;9.990;2022-09-30T07:48:22;23.13;;;13.73;;
1088;SDS011;533;53.556;9.990;2022-09-30T07:51:11;15.93;;;14.00;;
1088;SDS011;533;53.556;9.990;2022-09-30T07:54:04;17.00;;;13.70;;
1088;SDS011;533;53.556;9.990;2022-09-30T07:56:38;15.30;;;13.70;;
1088;SDS011;533;53.556;9.990;2022-09-30T07:59:33;17.93;;;13.87;;
1088;SDS011;533;53.556;9.990;2022-09-30T08:02:07;16.97;;;15.17;;
1088;SDS011;533;53.556;9.990;2022-09-30T08:04:46;18.97;;;14.40;;
1088;SDS011;533;53.556;9.990;2022-09-30T08:07:18;18.07;;;13.27;;
1088;SDS011;533;53.556;9.990;2022-09-30T08:09:50;16.80;;;13.70;;
1088;SDS011;533;53.556;9.990;2022-09-30T08:12:22;12.13;;;10.77;;
1088;SDS011;533;53.556;9.990;2022-09-30T08:14:54;15.07;;;11.90;;
1088;SDS011;533;53.556;9.990;2022-09-30T08:17:26;17.00;;;13.20;;
1088;SDS011;533;53.556;9.990;2022-09-30T08:19:58;13.00;;;10.00;;
1088;SDS011;533;53.556;9.990;2022-09-30T08:22:30;13.57;;;10.87;;
1088;SDS011;533;53.556;9.990;2022-09-30T08:25:02;11.13;;;9.30;;
1088;SDS011;533;53.556;9.990;2022-09-30T08:27:34;11.83;;;10.30;;
1088;SDS011;533;53.556;9.990;2022-09-30T08:30:06;13.90;;;9.90;;
1088;SDS011;533;53.556;9.990;2022-09-30T08:32:39;10.90;;;8.13;;
1088;SDS011;533;53.556;9.990;2022-09-30T08:35:11;10.57;;;6.97;;
1088;SDS011;533;53.556;9.990;2022-09-30T08:37:43;10.33;;;6.57;;
1088;SDS011;533;53.556;9.990;2022-09-30T08:40:18;12.53;;;7.43;;
1088;SDS011;533;53.556;9.990;2022-09-30T08:46:23;15.10;;;9.53;;
1088;SDS011;533;53.556;9.990;2022-09-30T08:51:52;8.37;;;7.30;;
1088;SDS011;533;53.556;9.990;2022-09-30T08:54:25;13.17;;;9.07;;
1088;SDS011;533;53.556;9.990;2022-09-30T08:57:02;11.67;;;8.57;;
1088;SDS011;533;53.556;9.990;2022-09-30T08:59:38;9.23;;;6.87;;
1088;SDS011;533;53.556;9.990;2022-09-30T09:02:14;12.60;;;8.47;;
1088;SDS011;533;53.556;9.990;2022-09-30T09:04:48;9.00;;;7.10;;
1088;SDS011;533;53.556;9.990;2022-09-30T09:13:19;13.07;;;6.60;;
1088;SDS011;533;53.556;9.990;2022-09-30T09:16:23;6.60;;;5.90;;
1088;SDS011;533;53.556;9.990;2022-09-30T09:19:10;9.83;;;6.40;;
1088;SDS011;533;53.556;9.990;2022-09-30T09:21:49;8.87;;;6.17;;
1088;SDS011;533;53.556;9.990;2022-09-30T09:24:23;9.13;;;6.33;;
1088;SDS011;533;53.556;9.990;2022-09-30T09:27:17;7.23;;;5.77;;
1088;SDS011;533;53.556;9.990;2022-09-30T09:30:09;6.50;;;5.47;;
1088;SDS011;533;53.556;9.990;2022-09-30T09:32:44;7.03;;;4.80;;
1088;SDS011;533;53.556;9.990;2022-09-30T09:35:28;7.90;;;5.50;;
1088;SDS011;533;53.556;9.990;2022-09-30T09:41:05;4.97;;;4.27;;
1088;SDS011;533;53.556;9.990;2022-09-30T09:43:47;6.70;;;4.40;;
1088;SDS011;533;53.556;9.990;2022-09-30T09:52:27;6.07;;;5.47;;
1088;SDS011;533;53.556;9.990;2022-09-30T09:54:46;7.53;;;5.57;;
1088;SDS011;533;53.556;9.990;2022-09-30T09:57:22;7.97;;;5.70;;
1088;SDS011;533;53.556;9.990;2022-09-30T09:59:59;6.70;;;5.80;;
1088;SDS011;533;53.556;9.990;2022-09-30T10:06:08;7.77;;;6.30;;
1088;SDS011;533;53.556;9.990;2022-09-30T10:08:54;8.37;;;6.03;;
1088;SDS011;533;53.556;9.990;2022-09-30T10:11:27;11.67;;;8.20;;
1088;SDS011;533;53.556;9.990;2022-09-30T10:13:59;9.57;;;7.27;;
1088;SDS011;533;53.556;9.990;2022-09-30T10:16:33;9.40;;;6.20;;
1088;SDS011;533;53.556;9.990;2022-09-30T10:19:18;7.10;;;5.47;;
1088;SDS011;533;53.556;9.990;2022-09-30T10:24:39;5.93;;;5.33;;
1088;SDS011;533;53.556;9.990;2022-09-30T10:27:45;5.77;;;5.10;;
1088;SDS011;533;53.556;9.990;2022-09-30T10:30:11;8.10;;;4.73;;
1088;SDS011;533;53.556;9.990;2022-09-30T10:32:43;7.50;;;5.83;;
1088;SDS011;533;53.556;9.990;2022-09-30T10:35:16;10.17;;;5.63;;
1088;SDS011;533;53.556;9.990;2022-09-30T10:37:52;6.70;;;6.00;;
1088;SDS011;533;53.556;9.990;2022-09-30T10:40:26;8.67;;;4.67;;
1088;SDS011;533;53.556;9.990;2022-09-30T10:42:59;6.83;;;4.80;;
1088;SDS011;533;53.556;9.990;2022-09-30T10:45:32;6.53;;;4.60;;
1088;SDS011;533;53.556;9.990;2022-09-30T10:48:12;6.13;;;4.40;;
1088;SDS011;533;53.556;9.990;2022-09-30T10:50:49;6.60;;;5.43;;
1088;SDS011;533;53.556;9.990;2022-09-30T10:53:23;4.33;;;3.53;;
1088;SDS011;533;53.556;9.990;2022-09-30T10:56:00;4.80;;;3.67;;
1088;SDS011;533;53.556;9.990;2022-09-30T10:58:40;3.90;;;3.40;;
1088;SDS011;533;53.556;9.990;2022-09-30T11:13:03;4.13;;;2.93;;
1088;SDS011;533;53.556;9.990;2022-09-30T11:19:02;3.83;;;2.87;;
1088;SDS011;533;53.556;9.990;2022-09-30T11:21:41;4.03;;;2.60;;
1088;SDS011;533;53.556;9.990;2022-09-30T11:26:58;5.87;;;2.40;;
1088;SDS011;533;53.556;9.990;2022-09-30T11:38:48;3.00;;;1.93;;
1088;SDS011;533;53.556;9.990;2022-09-30T11:52:20;4.07;;;2.10;;
1088;SDS011;533;53.556;9.990;2022-09-30T11:55:05;4.40;;;2.10;;
1088;SDS011;533;53.556;9.990;2022-09-30T11:58:01;3.67;;;2.60;;
1088;SDS011;533;53.556;9.990;2022-09-30T12:00:57;6.43;;;3.53;;
1088;SDS011;533;53.556;9.990;2022-09-30T12:03:38;4.70;;;2.73;;
1088;SDS011;533;53.556;9.990;2022-09-30T12:09:10;6.63;;;4.50;;
1088;SDS011;533;53.556;9.990;2022-09-30T12:11:50;4.30;;;3.80;;
1088;SDS011;533;53.556;9.990;2022-09-30T12:14:28;4.57;;;3.63;;
1088;SDS011;533;53.556;9.990;2022-09-30T12:17:03;7.97;;;4.93;;
1088;SDS011;533;53.556;9.990;2022-09-30T12:19:42;5.10;;;4.17;;
1088;SDS011;533;53.556;9.990;2022-09-30T12:22:38;7.30;;;5.37;;
1088;SDS011;533;53.556;9.990;2022-09-30T12:25:12;10.93;;;6.07;;
1088;SDS011;533;53.556;9.990;2022-09-30T12:30:26;6.80;;;6.10;;
1088;SDS011;533;53.556;9.990;2022-09-30T12:38:44;7.80;;;6.13;;
1088;SDS011;533;53.556;9.990;2022-09-30T12:50:05;6.87;;;5.97;;
1088;SDS011;533;53.556;9.990;2022-09-30T12:52:39;6.60;;;5.60;;
1088;SDS011;533;53.556;9.990;2022-09-30T12:57:58;6.57;;;5.97;;
1088;SDS011;533;53.556;9.990;2022-09-30T13:00:32;12.23;;;5.87;;
1088;SDS011;533;53.556;9.990;2022-09-30T13:03:06;8.10;;;6.50;;
1088;SDS011;533;53.556;9.990;2022-09-30T13:05:46;7.30;;;6.20;;
1088;SDS011;533;53.556;9.990;2022-09-30T13:08:25;6.60;;;5.90;;
1088;SDS011;533;53.556;9.990;2022-09-30T13:11:04;7.60;;;5.77;;
1088;SDS011;533;53.556;9.990;2022-09-30T13:13:55;5.97;;;5.27;;
1088;SDS011;533;53.556;9.990;2022-09-30T13:20:47;5.50;;;5.00;;
1088;SDS011;533;53.556;9.990;2022-09-30T13:25:03;5.80;;;5.27;;
1088;SDS011;533;53.556;9.990;2022-09-30T13:33:25;10.13;;;5.20;;
1088;SDS011;533;53.556;9.990;2022-09-30T13:35:57;10.23;;;6.00;;
1088;SDS011;533;53.556;9.990;2022-09-30T13:38:38;5.93;;;5.33;;
1088;SDS011;533;53.556;9.990;2022-09-30T13:41:16;10.47;;;5.70;;
1088;SDS011;533;53.556;9.990;2022-09-30T13:46:37;6.53;;;5.83;;
1088;SDS011;533;53.556;9.990;2022-09-30T13:49:15;8.60;;;6.03;;
1088;SDS011;533;53.556;9.990;2022-09-30T13:51:56;6.30;;;5.47;;
1088;SDS011;533;53.556;9.990;2022-09-30T13:54:29;7.70;;;6.50;;
1088;SDS011;533;53.556;9.990;2022-09-30T13:57:05;6.70;;;6.07;;
1088;SDS011;533;53.556;9.990;2022-09-30T13:59:47;6.93;;;6.23;;
1088;SDS011;533;53.556;9.990;2022-09-30T14:05:55;7.30;;;6.40;;
1088;SDS011;533;53.556;9.990;2022-09-30T14:11:17;8.30;;;7.40;;
1088;SDS011;533;53.556;9.990;2022-09-30T14:22:13;8.30;;;7.17;;
1088;SDS011;533;53.556;9.990;2022-09-30T14:24:46;10.43;;;7.80;;
1088;SDS011;533;53.556;9.990;2022-09-30T14:30:21;9.40;;;7.87;;
1088;SDS011;533;53.556;9.990;2022-09-30T14:33:01;8.80;;;7.90;;
1088;SDS011;533;53.556;9.990;2022-09-30T14:35:35;9.30;;;8.40;;
1088;SDS011;533;53.556;9.990;2022-09-30T14:38:12;12.70;;;7.60;;
1088;SDS011;533;53.556;9.990;2022-09-30T14:40:50;9.37;;;8.47;;
1088;SDS011;533;53.556;9.990;2022-09-30T14:43:27;10.20;;;8.33;;
1088;SDS011;533;53.556;9.990;2022-09-30T14:46:33;10.27;;;8.80;;
1088;SDS011;533;53.556;9.990;2022-09-30T14:49:08;9.90;;;7.50;;
1088;SDS011;533;53.556;9.990;2022-09-30T14:51:44;12.47;;;9.67;;
1088;SDS011;533;53.556;9.990;2022-09-30T14:56:53;10.37;;;9.27;;
1088;SDS011;533;53.556;9.990;2022-09-30T14:59:27;9.80;;;8.90;;
1088;SDS011;533;53.556;9.990;2022-09-30T15:02:11;11.70;;;9.00;;
1088;SDS011;533;53.556;9.990;2022-09-30T15:04:51;12.23;;;9.50;;
1088;SDS011;533;53.556;9.990;2022-09-30T15:07:24;11.57;;;10.20;;
1088;SDS011;533;53.556;9.990;2022-09-30T15:09:59;11.10;;;9.50;;
1088;SDS011;533;53.556;9.990;2022-09-30T15:12:32;8.87;;;8.07;;
1088;SDS011;533;53.556;9.990;2022-09-30T15:21:14;9.60;;;8.63;;
1088;SDS011;533;53.556;9.990;2022-09-30T15:23:47;9.67;;;8.70;;
1088;SDS011;533;53.556;9.990;2022-09-30T15:26:24;14.60;;;9.60;;
1088;SDS011;533;53.556;9.990;2022-09-30T15:28:57;10.60;;;8.87;;
1088;SDS011;533;53.556;9.990;2022-09-30T15:31:29;10.30;;;8.33;;
1088;SDS011;533;53.556;9.990;2022-09-30T15:34:04;10.63;;;8.90;;
1088;SDS011;533;53.556;9.990;2022-09-30T15:36:36;10.43;;;8.20;;
1088;SDS011;533;53.556;9.990;2022-09-30T15:39:19;10.00;;;9.10;;
1088;SDS011;533;53.556;9.990;2022-09-30T15:41:53;10.40;;;9.10;;
1088;SDS011;533;53.556;9.990;2022-09-30T15:44:37;10.07;;;8.80;;
1088;SDS011;533;53.556;9.990;2022-09-30T15:47:10;10.83;;;9.53;;
1088;SDS011;533;53.556;9.990;2022-09-30T15:49:45;11.63;;;9.70;;
1088;SDS011;533;53.556;9.990;2022-09-30T15:52:36;10.53;;;9.50;;
1088;SDS011;533;53.556;9.990;2022-09-30T16:03:55;11.73;;;10.30;;
1088;SDS011;533;53.556;9.990;2022-09-30T16:06:41;12.47;;;9.70;;
1088;SDS011;533;53.556;9.990;2022-09-30T16:19:59;12.13;;;10.93;;
1088;SDS011;533;53.556;9.990;2022-09-30T16:25:31;10.73;;;9.70;;
1088;SDS011;533;53.556;9.990;2022-09-30T16:28:08;11.87;;;9.23;;
1088;SDS011;533;53.556;9.990;2022-09-30T16:30:45;10.27;;;9.30;;
1088;SDS011;533;53.556;9.990;2022-09-30T16:33:18;10.93;;;9.90;;
1088;SDS011;533;53.556;9.990;2022-09-30T16:35:50;11.37;;;10.00;;
1088;SDS011;533;53.556;9.990;2022-09-30T16:38:22;11.57;;;9.90;;
1088;SDS011;533;53.556;9.990;2022-09-30T16:40:54;12.33;;;11.07;;
1088;SDS011;533;53.556;9.990;2022-09-30T16:43:27;12.53;;;10.03;;
1088;SDS011;533;53.556;9.990;2022-09-30T16:45:59;10.83;;;9.77;;
1088;SDS011;533;53.556;9.990;2022-09-30T16:48:31;10.67;;;9.13;;
1088;SDS011;533;53.556;9.990;2022-09-30T16:51:06;10.83;;;9.00;;
1088;SDS011;533;53.556;9.990;2022-09-30T16:53:44;10.43;;;9.40;;
1088;SDS011;533;53.556;9.990;2022-09-30T16:56:18;8.90;;;8.00;;
1088;SDS011;533;53.556;9.990;2022-09-30T16:58:51;8.60;;;7.80;;
1088;SDS011;533;53.556;9.990;2022-09-30T17:01:23;14.30;;;12.57;;
1088;SDS011;533;53.556;9.990;2022-09-30T17:03:56;10.23;;;9.13;;
1088;SDS011;533;53.556;9.990;2022-09-30T17:06:29;10.67;;;9.60;;
1088;SDS011;533;53.556;9.990;2022-09-30T17:09:03;10.60;;;9.60;;
1088;SDS011;533;53.556;9.990;2022-09-30T17:11:35;11.17;;;10.07;;
1088;SDS011;533;53.556;9.990;2022-09-30T17:14:08;12.33;;;9.00;;
1088;SDS011;533;53.556;9.990;2022-09-30T17:16:41;12.00;;;9.83;;
1088;SDS011;533;53.556;9.990;2022-09-30T17:19:13;12.97;;;10.70;;
1088;SDS011;533;53.556;9.990;2022-09-30T17:21:45;12.07;;;10.43;;
1088;SDS011;533;53.556;9.990;2022-09-30T17:24:17;13.53;;;10.17;;
1088;SDS011;533;53.556;9.990;2022-09-30T17:26:48;13.60;;;10.40;;
1088;SDS011;533;53.556;9.990;2022-09-30T17:29:21;11.37;;;10.37;;
1088;SDS011;533;53.556;9.990;2022-09-30T17:32:03;11.57;;;10.00;;
1088;SDS011;533;53.556;9.990;2022-09-30T17:34:35;13.20;;;11.10;;
1088;SDS011;533;53.556;9.990;2022-09-30T17:37:07;12.53;;;11.27;;
1088;SDS011;533;53.556;9.990;2022-09-30T17:39:39;13.23;;;10.37;;
1088;SDS011;533;53.556;9.990;2022-09-30T17:42:14;12.27;;;9.80;;
1088;SDS011;533;53.556;9.990;2022-09-30T17:45:05;10.90;;;9.80;;
1088;SDS011;533;53.556;9.990;2022-09-30T17:47:38;14.53;;;10.93;;
1088;SDS011;533;53.556;9.990;2022-09-30T17:50:11;12.03;;;10.47;;
1088;SDS011;533;53.556;9.990;2022-09-30T17:52:44;11.37;;;9.03;;
1088;SDS011;533;53.556;9.990;2022-09-30T17:55:17;12.17;;;10.57;;
1088;SDS011;533;53.556;9.990;2022-09-30T17:57:49;10.63;;;9.60;;
1088;SDS011;533;53.556;9.990;2022-09-30T18:00:22;12.67;;;9.37;;
1088;SDS011;533;53.556;9.990;2022-09-30T18:02:54;13.80;;;9.90;;
1088;SDS011;533;53.556;9.990;2022-09-30T18:05:26;10.13;;;9.13;;
1088;SDS011;533;53.556;9.990;2022-09-30T18:07:58;14.93;;;10.60;;
1088;SDS011;533;53.556;9.990;2022-09-30T18:10:31;12.57;;;10.67;;
1088;SDS011;533;53.556;9.990;2022-09-30T18:13:03;12.13;;;10.50;;
1088;SDS011;533;53.556;9.990;2022-09-30T18:15:36;14.27;;;12.80;;
1088;SDS011;533;53.556;9.990;2022-09-30T18:18:09;13.67;;;11.70;;
1088;SDS011;533;53.556;9.990;2022-09-30T18:20:42;15.20;;;11.40;;
1088;SDS011;533;53.556;9.990;2022-09-30T18:23:16;15.53;;;13.80;;
1088;SDS011;533;53.556;9.990;2022-09-30T18:25:49;17.20;;;13.47;;
1088;SDS011;533;53.556;9.990;2022-09-30T18:28:22;20.83;;;15.93;;
1088;SDS011;533;53.556;9.990;2022-09-30T18:30:54;17.57;;;13.60;;
1088;SDS011;533;53.556;9.990;2022-09-30T18:33:26;25.70;;;16.70;;
1088;SDS011;533;53.556;9.990;2022-09-30T18:35:59;19.60;;;14.10;;
1088;SDS011;533;53.556;9.990;2022-09-30T18:38:34;19.30;;;13.90;;
1088;SDS011;533;53.556;9.990;2022-09-30T18:41:06;15.20;;;13.07;;
1088;SDS011;533;53.556;9.990;2022-09-30T18:43:38;13.60;;;11.97;;
1088;SDS011;533;53.556;9.990;2022-09-30T18:46:11;16.83;;;13.10;;
1088;SDS011;533;53.556;9.990;2022-09-30T18:48:47;15.40;;;13.70;;
1088;SDS011;533;53.556;9.990;2022-09-30T18:51:21;14.73;;;13.33;;
1088;SDS011;533;53.556;9.990;2022-09-30T18:53:54;15.10;;;13.03;;
1088;SDS011;533;53.556;9.990;2022-09-30T18:56:29;13.90;;;11.53;;
1088;SDS011;533;53.556;9.990;2022-09-30T18:59:03;13.37;;;12.03;;
1088;SDS011;533;53.556;9.990;2022-09-30T19:01:35;12.37;;;10.77;;
1088;SDS011;533;53.556;9.990;2022-09-30T19:04:08;17.93;;;11.30;;
1088;SDS011;533;53.556;9.990;2022-09-30T19:06:42;12.27;;;11.10;;
1088;SDS011;533;53.556;9.990;2022-09-30T19:09:14;16.17;;;12.77;;
1088;SDS011;533;53.556;9.990;2022-09-30T19:11:47;13.23;;;11.20;;
1088;SDS011;533;53.556;9.990;2022-09-30T19:14:20;11.70;;;10.50;;
1088;SDS011;533;53.556;9.990;2022-09-30T19:16:54;14.23;;;11.50;;
1088;SDS011;533;53.556;9.990;2022-09-30T19:19:26;13.63;;;12.00;;
1088;SDS011;533;53.556;9.990;2022-09-30T19:21:59;14.10;;;10.87;;
1088;SDS011;533;53.556;9.990;2022-09-30T19:24:33;12.93;;;10.80;;
1088;SDS011;533;53.556;9.990;2022-09-30T19:27:06;12.67;;;10.47;;
1088;SDS011;533;53.556;9.990;2022-09-30T19:29:38;11.37;;;10.20;;
1088;SDS011;533;53.556;9.990;2022-09-30T19:32:11;11.73;;;10.13;;
1088;SDS011;533;53.556;9.990;2022-09-30T19:34:43;13.13;;;10.37;;
1088;SDS011;533;53.556;9.990;2022-09-30T19:37:30;13.00;;;11.30;;
1088;SDS011;533;53.556;9.990;2022-09-30T19:40:02;10.63;;;9.53;;
1088;SDS011;533;53.556;9.990;2022-09-30T19:42:51;11.40;;;10.30;;
1088;SDS011;533;53.556;9.990;2022-09-30T19:45:26;11.50;;;10.30;;
1088;SDS011;533;53.556;9.990;2022-09-30T19:47:59;9.87;;;8.77;;
1088;SDS011;533;53.556;9.990;2022-09-30T19:50:31;11.23;;;10.20;;
1088;SDS011;533;53.556;9.990;2022-09-30T19:53:05;11.30;;;9.83;;
1088;SDS011;533;53.556;9.990;2022-09-30T19:55:37;12.20;;;10.83;;
1088;SDS011;533;53.556;9.990;2022-09-30T19:58:20;9.80;;;8.80;;
1088;SDS011;533;53.556;9.990;2022-09-30T20:00:52;11.87;;;9.80;;